Aérodrome :
LOGIN :

S'inscrire | Disclaimer

   EN    FR    IT 

 










Légende :    VFR   VFR Marginal   IFR   IFR Intensif   IFR Très Intensif
Visi : 
Plafond : 
>= 8 km
>= 3000ft
5 à 8 km
1000 à 3000 ft
1500m à 5 km
500 à 1000 ft
800 à 1500m
200 à 500 ft
< 800m
< 200 ft
Symboles :   Orages  Brouillard  Fortes neiges  Fortes précipitations  Vent > 20 kt
SIGMETs :   Divers  Orages  Givrage  Turbulence  Onde Orograph.  Cendres Volcan.







- Altitude de l'aérodrome : 218 ft
- Code IATA : LBG
- Voir les cartes d'approche


LFPB - Paris / Le Bourget

DERNIER METAR :
  • 122130Z AUTO 16008KT CAVOK 10/09 Q1019 TEMPO BKN007

METARs EXPIRÉS :
  • 122100Z AUTO 16006KT CAVOK 10/09 Q1019 TEMPO BKN007
  • 122030Z AUTO 16005KT CAVOK 10/09 Q1018 TEMPO BKN007
  • 122000Z AUTO 18005KT CAVOK 11/09 Q1018 TEMPO BKN007
  • 121930Z AUTO 18005KT CAVOK 11/09 Q1018 TEMPO BKN007
  • 121900Z AUTO 19004KT CAVOK 11/09 Q1018 TEMPO BKN007

TAF TAF LFPB
Valide du 12 à 18h jusqu'au 13 à 18h UTC


121700Z 1218/1318 26005KT 9999 SCT012 BKN020
TEMPO 1219/1303 BKN007
ATIS : +33 1 48 62 43 92
Pas de NOTAMs connus pour ce terrain.
1 SIGMET publié pour la FIR Paris (LFFF) :
 
Givrage fort
LFFF SIGMET 1 VALID 122100/122300 LFPW
LFFF PARIS FIR/UIR SEV ICE OBS AT 2100Z WI N4830 E00415 - N4800 E00445 - N4645 E00245 - N4715 E00215 - N4830 E00415 FL150/210 MOV NE 15KT NC=



MET'MAP, la Météo Aéronautique d'un coup d'oeil ! - Copyright ORBIFLY Décembre 2007 - Disclaimer

ORBIFLY MET'MAP TEAM :

Programmation & Développement : Alexandra Zaïnal
Conception & Développement : Baudouin d'Aumeries
Co-Programmation & Développement : Marc-Olivier Méhu
Soutien technique & logistique : Manuel Goepfert

Contact : metmap@orbifly.com




SOURCES & CREDITS :

   NOAA